Terminal Aerodrome Forecast
Issued by NWS Wilmington, NC

Current Version | Previous Version | Graphics & Text | Print | Product List | Glossary Off
Versions: 1 2 3 4 5 6 7 8 9 10 11 12 13 14 15

345
FTUS42 KILM 231011 AAA
TAFMYR
TAF AMD
KMYR 231011Z 2310/2406 21009KT P6SM SCT020 SCT080
      TEMPO 2311/2312 OVC008
     FM231200 00000KT P6SM VCSH BKN025
      TEMPO 2312/2315 P6SM OVC008
     FM231500 13007KT P6SM BKN030
     FM232000 15012KT P6SM BKN040 PROB30 2320/2323 3SM -SHRA OVC015
     FM232300 14011KT P6SM -SHRA BKN025=

USA.gov is the U.S. government's official web portal to all federal, state and local government web resources and services.